createdAt,value
2017-04-08T00:00:08.384Z,7.13
2017-04-08T00:01:08.056Z,6.23
2017-04-08T00:02:07.789Z,6.69
2017-04-08T00:03:07.567Z,7.06
2017-04-08T00:04:07.531Z,6.81
2017-04-08T00:05:07.223Z,6.33
2017-04-08T00:06:08.386Z,6.17
2017-04-08T00:07:08.080Z,6.13
2017-04-08T00:08:08.050Z,6.31
2017-04-08T00:09:07.988Z,6.57
2017-04-08T00:10:07.733Z,6.40
2017-04-08T00:11:07.544Z,6.86
2017-04-08T00:12:07.259Z,5.60
2017-04-08T00:13:06.953Z,8.11
2017-04-08T00:14:06.731Z,7.07
2017-04-08T00:15:06.432Z,6.17
2017-04-08T00:16:06.107Z,5.96
2017-04-08T00:17:05.783Z,6.49
2017-04-08T00:18:05.454Z,7.63
2017-04-08T00:19:05.135Z,6.64
2017-04-08T00:20:04.846Z,6.17
2017-04-08T00:21:04.584Z,5.89
2017-04-08T00:22:04.236Z,6.69
2017-04-08T00:23:03.900Z,5.50
2017-04-08T00:24:03.587Z,5.94
2017-04-08T00:25:03.366Z,6.77
2017-04-08T00:26:03.063Z,6.36
2017-04-08T00:27:02.798Z,6.51
2017-04-08T00:28:02.635Z,5.93
2017-04-08T00:29:02.339Z,5.91
2017-04-08T00:30:02.092Z,5.91
2017-04-08T00:31:01.818Z,5.79
2017-04-08T00:32:01.544Z,6.31
2017-04-08T00:33:01.244Z,5.17
2017-04-08T00:34:00.967Z,5.76
2017-04-08T00:35:00.631Z,6.16
2017-04-08T00:36:00.402Z,6.11
2017-04-08T00:37:00.152Z,5.60
2017-04-08T00:37:59.908Z,6.21
2017-04-08T00:38:59.644Z,5.77
2017-04-08T00:39:59.295Z,5.70
2017-04-08T00:40:59.020Z,5.93
2017-04-08T00:41:58.775Z,5.73
2017-04-08T00:42:58.462Z,5.70
2017-04-08T00:43:58.232Z,7.86
2017-04-08T00:44:57.972Z,5.80
2017-04-08T00:45:57.804Z,5.76
2017-04-08T00:46:57.518Z,5.43
2017-04-08T00:47:57.208Z,6.86
2017-04-08T00:48:56.917Z,5.64
2017-04-08T00:49:56.607Z,5.24
2017-04-08T00:50:56.359Z,5.86
2017-04-08T00:51:56.055Z,5.84
2017-04-08T00:52:55.781Z,5.41
2017-04-08T00:53:55.783Z,6.31
2017-04-08T00:54:55.488Z,7.13
2017-04-08T00:55:55.195Z,6.56
2017-04-08T00:56:54.951Z,5.76
2017-04-08T00:57:54.678Z,5.66
2017-04-08T00:58:54.375Z,7.01
2017-04-08T00:59:54.089Z,6.94
2017-04-08T01:00:59.035Z,5.81
2017-04-08T01:02:03.634Z,5.20
2017-04-08T01:03:03.420Z,6.21
2017-04-08T01:04:03.136Z,5.30
2017-04-08T01:05:03.051Z,5.96
2017-04-08T01:06:02.806Z,4.77
2017-04-08T01:07:02.620Z,6.13
2017-04-08T01:08:02.318Z,6.00
2017-04-08T01:09:02.024Z,5.56
2017-04-08T01:10:01.708Z,5.54
2017-04-08T01:11:01.477Z,6.49
2017-04-08T01:12:01.162Z,6.13
2017-04-08T01:13:00.873Z,5.37
2017-04-08T01:14:00.915Z,4.91
2017-04-08T01:15:00.591Z,5.51
2017-04-08T01:16:00.361Z,5.37
2017-04-08T01:17:00.727Z,5.57
2017-04-08T01:18:00.427Z,5.14
2017-04-08T01:19:00.143Z,5.47
2017-04-08T01:19:59.916Z,5.30
2017-04-08T01:20:59.631Z,5.63
2017-04-08T01:21:59.312Z,5.01
2017-04-08T01:22:59.081Z,5.09
2017-04-08T01:23:58.795Z,5.43
2017-04-08T01:24:59.059Z,5.70
2017-04-08T01:25:58.783Z,4.76
2017-04-08T01:26:58.508Z,5.77
2017-04-08T01:27:58.180Z,5.61
2017-04-08T01:28:58.315Z,4.76
2017-04-08T01:29:58.030Z,4.99
2017-04-08T01:30:57.747Z,5.43
2017-04-08T01:31:57.703Z,5.01
2017-04-08T01:32:57.390Z,5.39
2017-04-08T01:33:57.125Z,4.97
2017-04-08T01:34:56.864Z,4.99
2017-04-08T01:35:56.562Z,4.79
2017-04-08T01:36:56.231Z,5.13
2017-04-08T01:37:55.891Z,4.91
2017-04-08T01:38:55.599Z,4.77
2017-04-08T01:39:55.380Z,4.83
2017-04-08T01:40:55.074Z,5.13
2017-04-08T01:41:54.767Z,4.94
2017-04-08T01:42:54.447Z,5.96
2017-04-08T01:43:54.123Z,4.80
2017-04-08T01:44:53.792Z,6.44
2017-04-08T01:45:53.491Z,4.94
2017-04-08T01:46:53.202Z,5.24
2017-04-08T01:47:52.915Z,5.19
2017-04-08T01:48:52.667Z,5.20
2017-04-08T01:49:52.525Z,4.67
2017-04-08T01:50:52.232Z,5.34
2017-04-08T01:51:51.928Z,5.26
2017-04-08T01:52:51.595Z,4.70
2017-04-08T01:53:51.265Z,5.99
2017-04-08T01:54:50.950Z,5.39
2017-04-08T01:55:50.620Z,4.34
2017-04-08T01:56:50.300Z,4.37
2017-04-08T01:57:50.060Z,4.87
2017-04-08T01:58:49.728Z,4.14
2017-04-08T01:59:49.377Z,4.37
2017-04-08T02:00:49.718Z,5.04
2017-04-08T02:01:50.205Z,4.69
2017-04-08T02:02:49.967Z,4.81
2017-04-08T02:03:50.490Z,5.03
2017-04-08T02:04:50.245Z,5.11
2017-04-08T02:05:50.010Z,4.37
2017-04-08T02:06:49.716Z,4.81
2017-04-08T02:07:49.684Z,4.67
2017-04-08T02:08:49.473Z,4.99
2017-04-08T02:09:49.196Z,4.70
2017-04-08T02:10:48.965Z,4.34
2017-04-08T02:11:48.719Z,5.74
2017-04-08T02:12:48.395Z,5.31
2017-04-08T02:13:48.084Z,4.91
2017-04-08T02:14:47.852Z,4.29
2017-04-08T02:15:47.528Z,4.30
2017-04-08T02:16:47.186Z,4.30
2017-04-08T02:17:46.870Z,5.06
2017-04-08T02:18:46.543Z,4.87
2017-04-08T02:19:46.270Z,4.49
2017-04-08T02:20:45.998Z,4.53
2017-04-08T02:21:45.709Z,4.11
2017-04-08T02:22:45.381Z,4.39
2017-04-08T02:23:45.062Z,5.11
2017-04-08T02:24:44.759Z,4.46
2017-04-08T02:25:44.452Z,5.20
2017-04-08T02:26:44.179Z,4.34
2017-04-08T02:27:43.868Z,4.07
2017-04-08T02:28:43.516Z,4.26
2017-04-08T02:29:43.216Z,5.81
2017-04-08T02:30:42.920Z,4.89
2017-04-08T02:31:42.665Z,4.37
2017-04-08T02:32:42.344Z,4.23
2017-04-08T02:33:42.025Z,5.44
2017-04-08T02:34:41.700Z,4.41
2017-04-08T02:35:41.348Z,4.41
2017-04-08T02:36:41.075Z,5.56
2017-04-08T02:37:40.765Z,4.23
2017-04-08T02:38:40.455Z,4.37
2017-04-08T02:39:40.180Z,4.44
2017-04-08T02:40:39.831Z,4.60
2017-04-08T02:41:39.559Z,4.14
2017-04-08T02:42:39.229Z,4.23
2017-04-08T02:43:38.921Z,3.83
2017-04-08T02:44:38.636Z,4.71
2017-04-08T02:45:38.364Z,4.31
2017-04-08T02:46:38.060Z,3.89
2017-04-08T02:47:37.751Z,4.46
2017-04-08T02:48:37.470Z,4.44
2017-04-08T02:49:37.197Z,4.21
2017-04-08T02:50:36.870Z,3.76
2017-04-08T02:51:36.558Z,4.20
2017-04-08T02:52:36.276Z,4.97
2017-04-08T02:53:35.964Z,4.59
2017-04-08T02:54:35.678Z,5.20
2017-04-08T02:55:35.360Z,4.57
2017-04-08T02:56:35.046Z,4.26
2017-04-08T02:57:34.728Z,4.26
2017-04-08T02:58:34.404Z,4.37
2017-04-08T02:59:34.101Z,3.81
2017-04-08T03:00:33.927Z,5.09
2017-04-08T03:01:33.572Z,5.67
2017-04-08T03:02:33.419Z,4.41
2017-04-08T03:03:33.062Z,5.63
2017-04-08T03:04:32.807Z,3.93
2017-04-08T03:05:32.492Z,4.54
2017-04-08T03:06:32.228Z,4.74
2017-04-08T03:07:31.894Z,4.79
2017-04-08T03:08:31.546Z,4.19
2017-04-08T03:09:31.243Z,3.83
2017-04-08T03:10:30.982Z,3.49
2017-04-08T03:11:30.688Z,4.00
2017-04-08T03:12:30.359Z,4.29
2017-04-08T03:13:30.052Z,3.77
2017-04-08T03:14:29.741Z,4.24
2017-04-08T03:15:29.387Z,4.26
2017-04-08T03:16:29.085Z,3.80
2017-04-08T03:17:28.771Z,3.53
2017-04-08T03:18:28.551Z,4.06
2017-04-08T03:19:28.337Z,4.57
2017-04-08T03:20:28.071Z,3.87
2017-04-08T03:21:28.011Z,4.53
2017-04-08T03:22:27.719Z,3.93
2017-04-08T03:23:27.447Z,4.17
2017-04-08T03:24:27.124Z,4.07
2017-04-08T03:25:26.803Z,4.04
2017-04-08T03:26:26.483Z,3.79
2017-04-08T03:27:26.155Z,4.56
2017-04-08T03:28:25.923Z,3.93
2017-04-08T03:29:25.556Z,3.90
2017-04-08T03:30:25.255Z,3.41
2017-04-08T03:31:24.888Z,3.64
2017-04-08T03:32:24.607Z,3.93
2017-04-08T03:34:44.303Z,3.60
2017-04-08T03:35:44.393Z,3.54
2017-04-08T03:36:44.109Z,3.80
2017-04-08T03:37:43.783Z,4.19
2017-04-08T03:38:43.484Z,3.69
2017-04-08T03:39:43.143Z,4.29
2017-04-08T03:40:42.816Z,4.20
2017-04-08T03:41:42.476Z,3.83
2017-04-08T03:42:42.162Z,4.24
2017-04-08T03:43:41.828Z,4.03
2017-04-08T03:44:41.507Z,3.77
2017-04-08T03:45:41.187Z,3.54
2017-04-08T03:46:40.847Z,3.14
2017-04-08T03:47:40.543Z,3.37
2017-04-08T03:48:40.198Z,4.37
2017-04-08T03:49:39.845Z,3.70
2017-04-08T03:50:39.542Z,4.11
2017-04-08T03:51:39.216Z,3.46
2017-04-08T03:52:38.872Z,3.59
2017-04-08T03:53:38.572Z,3.87
2017-04-08T03:54:38.340Z,4.37
2017-04-08T03:55:37.975Z,3.09
2017-04-08T03:56:37.690Z,3.89
2017-04-08T03:57:37.364Z,3.51
2017-04-08T03:58:37.296Z,3.60
2017-04-08T03:59:36.957Z,4.17
2017-04-08T04:00:36.611Z,3.19
2017-04-08T04:01:36.319Z,3.76
2017-04-08T04:02:36.001Z,3.44
2017-04-08T04:03:35.710Z,3.14
2017-04-08T04:04:35.395Z,3.56
2017-04-08T04:05:35.090Z,3.36
2017-04-08T04:06:34.723Z,3.74
2017-04-08T04:07:34.369Z,3.64
2017-04-08T04:08:34.120Z,3.89
2017-04-08T04:09:33.802Z,2.81
2017-04-08T04:10:33.532Z,4.03
2017-04-08T04:11:33.497Z,3.61
2017-04-08T04:12:33.169Z,3.70
2017-04-08T04:13:32.864Z,3.54
2017-04-08T04:14:32.561Z,3.26
2017-04-08T04:15:32.215Z,3.23
2017-04-08T04:16:32.143Z,3.83
2017-04-08T04:17:32.115Z,3.19
2017-04-08T04:18:31.831Z,3.36
2017-04-08T04:19:31.518Z,3.70
2017-04-08T04:20:31.217Z,3.40
2017-04-08T04:21:30.879Z,3.49
2017-04-08T04:22:30.589Z,3.61
2017-04-08T04:23:30.280Z,2.97
2017-04-08T04:24:29.944Z,3.30
2017-04-08T04:25:29.647Z,3.74
2017-04-08T04:26:29.389Z,3.63
2017-04-08T04:27:29.067Z,4.94
2017-04-08T04:28:29.511Z,3.16
2017-04-08T04:29:29.360Z,3.34
2017-04-08T04:30:29.051Z,3.77
2017-04-08T04:31:28.731Z,3.53
2017-04-08T04:32:28.423Z,3.04
2017-04-08T04:33:28.122Z,3.31
2017-04-08T04:34:27.823Z,3.34
2017-04-08T04:35:27.505Z,3.14
2017-04-08T04:36:27.210Z,3.64
2017-04-08T04:37:26.981Z,3.04
2017-04-08T04:38:26.676Z,5.10
2017-04-08T04:39:26.837Z,3.13
2017-04-08T04:40:26.528Z,3.84
2017-04-08T04:41:26.307Z,3.00
2017-04-08T04:42:25.976Z,3.33
2017-04-08T04:43:25.621Z,3.47
2017-04-08T04:44:25.311Z,3.21
2017-04-08T04:45:25.039Z,3.54
2017-04-08T04:46:24.687Z,3.33
2017-04-08T04:47:24.531Z,4.47
2017-04-08T04:48:24.186Z,2.71
2017-04-08T04:49:23.856Z,3.34
2017-04-08T04:50:24.927Z,3.26
2017-04-08T04:51:24.637Z,3.59
2017-04-08T04:52:24.335Z,3.16
2017-04-08T04:53:24.008Z,3.33
2017-04-08T04:54:23.695Z,4.36
2017-04-08T04:55:23.486Z,3.54
2017-04-08T04:56:23.181Z,3.03
2017-04-08T04:57:22.943Z,3.39
2017-04-08T04:58:22.664Z,3.77
2017-04-08T04:59:22.373Z,3.24
2017-04-08T05:00:22.072Z,3.54
2017-04-08T05:01:21.760Z,2.96
2017-04-08T05:02:21.548Z,2.74
2017-04-08T05:03:21.245Z,3.11
2017-04-08T05:04:20.972Z,3.16
2017-04-08T05:05:20.661Z,3.70
2017-04-08T05:06:20.355Z,3.86
2017-04-08T05:07:20.021Z,3.31
2017-04-08T05:08:19.697Z,3.33
2017-04-08T05:09:19.336Z,3.60
2017-04-08T05:10:19.061Z,3.40
2017-04-08T05:11:18.769Z,3.44
2017-04-08T05:12:18.523Z,3.33
2017-04-08T05:13:18.215Z,3.31
2017-04-08T05:14:17.883Z,4.27
2017-04-08T05:15:17.851Z,3.64
2017-04-08T05:16:17.528Z,3.27
2017-04-08T05:17:17.176Z,3.10
2017-04-08T05:18:16.861Z,3.34
2017-04-08T05:19:16.568Z,3.39
2017-04-08T05:20:16.279Z,3.46
2017-04-08T05:21:15.957Z,3.24
2017-04-08T05:22:15.691Z,3.86
2017-04-08T05:23:15.408Z,3.16
2017-04-08T05:24:15.121Z,3.07
2017-04-08T05:25:14.786Z,3.39
2017-04-08T05:26:14.450Z,2.83
2017-04-08T05:27:14.136Z,3.06
2017-04-08T05:28:13.837Z,3.06
2017-04-08T05:29:13.546Z,3.47
2017-04-08T05:30:13.172Z,3.39
2017-04-08T05:31:12.855Z,3.31
2017-04-08T05:32:12.506Z,3.19
2017-04-08T05:33:12.199Z,3.60
2017-04-08T05:34:11.900Z,2.94
2017-04-08T05:35:11.627Z,3.56
2017-04-08T05:36:11.305Z,3.29
2017-04-08T05:37:11.012Z,3.36
2017-04-08T05:38:10.781Z,4.36
2017-04-08T05:39:10.443Z,3.64
2017-04-08T05:40:10.165Z,3.36
2017-04-08T05:41:09.856Z,3.39
2017-04-08T05:42:09.557Z,3.30
2017-04-08T05:43:09.222Z,3.40
2017-04-08T05:44:08.907Z,3.63
2017-04-08T05:45:08.591Z,3.09
2017-04-08T05:46:08.294Z,2.89
2017-04-08T05:47:07.976Z,3.37
2017-04-08T05:48:07.651Z,3.79
2017-04-08T05:49:07.295Z,3.80
2017-04-08T05:50:07.023Z,3.20
2017-04-08T05:51:06.713Z,3.50
2017-04-08T05:52:06.459Z,4.01
2017-04-08T05:53:06.296Z,3.66
2017-04-08T05:55:25.555Z,3.83
2017-04-08T05:56:25.231Z,4.00
2017-04-08T05:57:24.925Z,3.64
2017-04-08T05:58:24.693Z,4.09
2017-04-08T05:59:24.448Z,4.17
2017-04-08T06:00:24.385Z,3.46
2017-04-08T06:01:24.376Z,3.83
2017-04-08T06:02:24.509Z,3.56
2017-04-08T06:03:24.317Z,3.54
2017-04-08T06:04:24.241Z,3.70
2017-04-08T06:05:24.202Z,3.61
2017-04-08T06:06:23.927Z,3.97
2017-04-08T06:07:24.711Z,3.61
2017-04-08T06:08:24.615Z,3.74
2017-04-08T06:09:24.559Z,3.87
2017-04-08T06:10:24.392Z,3.70
2017-04-08T06:11:24.650Z,3.47
2017-04-08T06:12:24.782Z,3.49
2017-04-08T06:13:24.612Z,3.43
2017-04-08T06:14:24.433Z,4.29
2017-04-08T06:15:24.155Z,3.37
2017-04-08T06:16:24.114Z,3.53
2017-04-08T06:17:23.865Z,3.93
2017-04-08T06:19:34.156Z,4.13
2017-04-08T06:20:36.249Z,3.96
2017-04-08T06:21:36.027Z,4.41
2017-04-08T06:22:35.714Z,4.06
2017-04-08T06:23:38.640Z,3.97
2017-04-08T06:24:38.386Z,4.06
2017-04-08T06:25:38.080Z,4.36
2017-04-08T06:26:38.283Z,3.79
2017-04-08T06:27:37.992Z,4.27
2017-04-08T06:28:37.749Z,3.87
2017-04-08T06:29:37.450Z,4.11
2017-04-08T06:30:37.155Z,3.99
2017-04-08T06:31:36.884Z,4.27
2017-04-08T06:32:36.555Z,4.19
2017-04-08T06:33:36.280Z,4.31
2017-04-08T06:34:36.021Z,4.07
2017-04-08T06:35:35.718Z,4.11
2017-04-08T06:36:35.423Z,4.16
2017-04-08T06:37:35.108Z,3.39
2017-04-08T06:38:34.783Z,3.93
2017-04-08T06:39:34.613Z,3.86
2017-04-08T06:40:34.351Z,4.16
2017-04-08T06:41:34.418Z,4.03
2017-04-08T06:42:34.072Z,4.59
2017-04-08T06:43:33.886Z,4.09
2017-04-08T06:44:33.627Z,3.90
2017-04-08T06:45:33.328Z,3.83
2017-04-08T06:46:33.425Z,4.47
2017-04-08T06:47:33.318Z,4.44
2017-04-08T06:48:33.753Z,4.06
2017-04-08T06:49:33.990Z,4.31
2017-04-08T06:50:34.089Z,4.10
2017-04-08T06:51:33.813Z,4.11
2017-04-08T06:52:33.487Z,3.94
2017-04-08T06:53:33.693Z,4.37
2017-04-08T06:54:33.390Z,4.40
2017-04-08T06:55:33.388Z,3.91
2017-04-08T06:56:33.276Z,3.80
2017-04-08T06:57:33.322Z,4.11
2017-04-08T06:58:33.456Z,4.10
2017-04-08T06:59:33.252Z,4.14
2017-04-08T07:00:33.012Z,3.86
2017-04-08T07:01:32.734Z,4.00
2017-04-08T07:02:33.034Z,3.93
2017-04-08T07:03:32.771Z,3.67
2017-04-08T07:04:32.579Z,3.80
2017-04-08T07:05:33.232Z,3.91
2017-04-08T07:06:32.924Z,3.81
2017-04-08T07:07:32.620Z,3.69
2017-04-08T07:08:32.777Z,3.94
2017-04-08T07:09:32.471Z,3.69
2017-04-08T07:10:32.177Z,3.60
2017-04-08T07:11:32.004Z,3.41
2017-04-08T07:12:31.785Z,3.54
2017-04-08T07:13:31.501Z,4.86
2017-04-08T07:14:31.331Z,6.17
2017-04-08T07:15:31.104Z,6.81
2017-04-08T07:16:30.896Z,6.69
2017-04-08T07:17:30.572Z,6.69
2017-04-08T07:18:31.986Z,5.66
2017-04-08T07:19:33.177Z,5.97
2017-04-08T07:20:33.139Z,5.36
2017-04-08T07:21:32.843Z,5.09
2017-04-08T07:22:32.558Z,6.73
2017-04-08T07:23:32.268Z,4.97
2017-04-08T07:24:31.995Z,5.16
2017-04-08T07:25:31.734Z,4.13
2017-04-08T07:26:31.474Z,4.77
2017-04-08T07:27:31.182Z,4.14
2017-04-08T07:28:31.192Z,4.16
2017-04-08T07:29:30.952Z,4.21
2017-04-08T07:30:30.647Z,4.97
2017-04-08T07:32:41.390Z,26.27
2017-04-08T07:33:41.481Z,28.06
2017-04-08T07:34:41.227Z,30.56
2017-04-08T07:35:42.004Z,29.83
2017-04-08T07:36:42.070Z,35.26
2017-04-08T07:37:41.837Z,32.89
2017-04-08T07:38:42.407Z,29.40
2017-04-08T07:39:42.276Z,31.44
2017-04-08T07:40:42.168Z,36.89
2017-04-08T07:41:41.958Z,34.39
2017-04-08T07:42:41.769Z,31.46
2017-04-08T07:43:41.780Z,37.13
2017-04-08T07:44:41.809Z,33.23
2017-04-08T07:45:42.717Z,37.00
2017-04-08T07:46:42.644Z,34.93
2017-04-08T07:47:42.470Z,39.94
2017-04-08T07:48:42.337Z,36.96
2017-04-08T07:49:42.118Z,35.46
2017-04-08T07:50:41.950Z,35.76
2017-04-08T07:51:41.720Z,40.19
2017-04-08T07:52:41.510Z,40.16
2017-04-08T07:53:42.214Z,35.51
2017-04-08T07:54:41.977Z,36.74
2017-04-08T07:55:41.810Z,38.37
2017-04-08T07:56:41.604Z,40.67
2017-04-08T07:57:41.507Z,39.19
2017-04-08T07:58:41.318Z,36.36
2017-04-08T07:59:41.106Z,40.40
2017-04-08T08:00:40.959Z,39.80
2017-04-08T08:01:40.856Z,37.61
2017-04-08T08:02:40.775Z,40.06
2017-04-08T08:03:42.423Z,39.64
2017-04-08T08:04:42.626Z,39.64
2017-04-08T08:05:43.639Z,38.86
2017-04-08T08:06:45.347Z,36.49
2017-04-08T08:07:45.988Z,38.77
2017-04-08T08:08:45.809Z,37.16
2017-04-08T08:09:45.577Z,37.13
2017-04-08T08:10:46.059Z,38.06
2017-04-08T08:11:45.845Z,41.81
2017-04-08T08:12:45.659Z,37.39
2017-04-08T08:13:45.409Z,37.93
2017-04-08T08:14:45.860Z,37.24
2017-04-08T08:15:45.676Z,37.61
2017-04-08T08:16:45.461Z,39.97
2017-04-08T08:17:45.399Z,40.07
2017-04-08T08:18:45.879Z,38.30
2017-04-08T08:19:45.670Z,36.27
2017-04-08T08:20:45.430Z,40.51
2017-04-08T08:21:45.198Z,38.96
2017-04-08T08:22:45.020Z,38.03
2017-04-08T08:23:44.809Z,40.64
2017-04-08T08:24:44.631Z,38.34
2017-04-08T08:25:44.398Z,37.46
2017-04-08T08:26:44.190Z,37.49
2017-04-08T08:27:47.650Z,40.47
2017-04-08T08:28:47.549Z,36.20
2017-04-08T08:29:47.422Z,37.37
2017-04-08T08:30:47.387Z,39.29
2017-04-08T08:31:47.851Z,37.37
2017-04-08T08:32:47.739Z,38.81
2017-04-08T08:33:47.594Z,33.80
2017-04-08T08:34:47.825Z,33.00
2017-04-08T08:35:47.736Z,38.97
2017-04-08T08:36:47.816Z,40.03
2017-04-08T08:37:48.231Z,50.60
2017-04-08T08:38:48.280Z,36.03
2017-04-08T08:39:49.133Z,42.21
2017-04-08T08:40:49.290Z,41.90
2017-04-08T08:41:49.552Z,33.79
2017-04-08T08:42:50.422Z,35.10
2017-04-08T08:43:50.712Z,38.29
2017-04-08T08:44:51.039Z,34.36
2017-04-08T08:45:51.258Z,31.01
2017-04-08T08:46:51.149Z,35.67
2017-04-08T08:47:51.190Z,32.03
2017-04-08T08:48:51.409Z,29.44
2017-04-08T08:49:51.555Z,30.57
2017-04-08T08:50:51.573Z,32.21
2017-04-08T08:51:51.555Z,29.80
2017-04-08T08:52:51.471Z,32.19
2017-04-08T08:53:51.356Z,29.11
2017-04-08T08:54:51.177Z,29.99
2017-04-08T08:55:51.181Z,32.00
2017-04-08T08:56:51.022Z,31.57
2017-04-08T08:57:50.920Z,29.51
2017-04-08T08:58:51.557Z,30.01
2017-04-08T08:59:51.762Z,33.19
2017-04-08T09:00:52.098Z,32.60
2017-04-08T09:01:52.036Z,30.77
2017-04-08T09:02:52.237Z,32.71
2017-04-08T09:03:52.323Z,29.33
2017-04-08T09:04:52.403Z,32.91
2017-04-08T09:05:53.208Z,34.13
2017-04-08T09:06:53.321Z,34.16
2017-04-08T09:07:53.447Z,37.49
2017-04-08T09:08:53.751Z,36.40
2017-04-08T09:09:53.607Z,35.10
2017-04-08T09:10:54.737Z,33.21
2017-04-08T09:11:55.922Z,36.39
2017-04-08T09:12:55.814Z,35.51
2017-04-08T09:13:55.709Z,30.00
2017-04-08T09:14:55.555Z,32.21
2017-04-08T09:15:55.511Z,32.03
2017-04-08T09:16:55.559Z,32.04
2017-04-08T09:17:56.565Z,29.74
2017-04-08T09:18:56.450Z,32.76
2017-04-08T09:19:56.308Z,28.01
2017-04-08T09:20:56.222Z,30.89
2017-04-08T09:21:56.210Z,29.19
2017-04-08T09:22:56.352Z,28.31
2017-04-08T09:23:57.166Z,26.34
2017-04-08T09:24:57.093Z,28.79
2017-04-08T09:25:57.007Z,32.56
2017-04-08T09:26:58.145Z,29.93
2017-04-08T09:27:58.213Z,25.80
2017-04-08T09:28:58.140Z,24.00
2017-04-08T09:29:58.098Z,22.61
2017-04-08T09:30:58.192Z,22.09
2017-04-08T09:31:58.233Z,21.94
2017-04-08T09:32:58.144Z,21.67
2017-04-08T09:33:58.070Z,21.93
2017-04-08T09:34:57.958Z,23.14
2017-04-08T09:35:58.001Z,25.77
2017-04-08T09:36:57.995Z,22.80
2017-04-08T09:37:59.208Z,23.84
2017-04-08T09:38:59.361Z,22.20
2017-04-08T09:40:01.050Z,21.41
2017-04-08T09:41:02.427Z,21.61
2017-04-08T09:42:04.182Z,19.74
2017-04-08T09:43:05.527Z,17.54
2017-04-08T09:44:06.017Z,17.50
2017-04-08T09:45:06.703Z,19.66
2017-04-08T09:46:06.683Z,18.10
2017-04-08T09:47:06.627Z,19.90
2017-04-08T09:48:07.407Z,19.64
2017-04-08T09:49:08.384Z,18.93
2017-04-08T09:50:09.268Z,22.64
2017-04-08T09:51:09.517Z,21.34
2017-04-08T09:52:12.479Z,22.37
2017-04-08T09:53:17.043Z,20.04
2017-04-08T09:54:19.983Z,20.41
2017-04-08T09:55:21.137Z,18.66
2017-04-08T09:56:22.142Z,17.44
2017-04-08T09:57:23.617Z,18.44
2017-04-08T09:58:24.492Z,16.57
2017-04-08T09:59:25.757Z,16.34
2017-04-08T10:00:27.150Z,16.19
2017-04-08T10:01:29.389Z,18.60
2017-04-08T10:02:30.480Z,18.00
2017-04-08T10:03:31.846Z,22.50
2017-04-08T10:04:33.094Z,20.80
2017-04-08T10:05:33.961Z,20.66
2017-04-08T10:06:34.774Z,21.47
2017-04-08T10:07:34.602Z,20.96
2017-04-08T10:08:34.554Z,21.46
2017-04-08T10:09:34.483Z,20.19
2017-04-08T10:10:34.416Z,19.37
2017-04-08T10:11:34.271Z,17.33
2017-04-08T10:12:34.290Z,17.29
2017-04-08T10:13:34.202Z,16.44
2017-04-08T10:14:34.995Z,16.83
2017-04-08T10:15:34.914Z,19.70
2017-04-08T10:16:35.878Z,18.30
2017-04-08T10:17:35.937Z,21.66
2017-04-08T10:18:35.882Z,18.56
2017-04-08T10:19:35.964Z,20.74
2017-04-08T10:20:35.864Z,19.54
2017-04-08T10:21:36.679Z,19.97
2017-04-08T10:22:37.053Z,19.60
2017-04-08T10:23:37.512Z,21.23
2017-04-08T10:24:37.952Z,21.20
2017-04-08T10:25:37.888Z,20.23
2017-04-08T10:26:39.321Z,20.11
2017-04-08T10:27:39.285Z,20.77
2017-04-08T10:28:40.046Z,18.51
2017-04-08T10:29:40.594Z,19.64
2017-04-08T10:30:40.457Z,19.13
2017-04-08T10:31:40.410Z,18.09
2017-04-08T10:32:40.266Z,17.33
2017-04-08T10:33:40.251Z,18.40
2017-04-08T10:34:40.306Z,19.27
2017-04-08T10:35:40.224Z,16.20
2017-04-08T10:36:40.232Z,16.41
2017-04-08T10:37:40.208Z,15.84
2017-04-08T10:38:40.133Z,18.49
2017-04-08T10:39:39.995Z,18.37
2017-04-08T10:40:39.897Z,16.34
2017-04-08T10:41:39.820Z,17.87
2017-04-08T10:42:39.780Z,17.87
2017-04-08T10:43:39.788Z,18.76
2017-04-08T10:44:39.785Z,16.37
2017-04-08T10:45:39.631Z,17.37
2017-04-08T10:46:39.564Z,18.19
2017-04-08T10:47:39.845Z,18.07
2017-04-08T10:48:39.860Z,16.86
2017-04-08T10:49:39.995Z,17.80
2017-04-08T10:50:39.948Z,16.99
2017-04-08T10:51:39.770Z,16.97
2017-04-08T10:52:39.746Z,16.10
2017-04-08T10:53:39.661Z,16.99
2017-04-08T10:54:39.587Z,15.13
2017-04-08T10:55:39.559Z,16.49
2017-04-08T10:56:42.153Z,18.30
2017-04-08T10:57:42.087Z,17.50
2017-04-08T10:58:42.108Z,17.63
2017-04-08T10:59:42.024Z,17.61
2017-04-08T11:00:42.114Z,17.57
2017-04-08T11:01:43.676Z,17.19
2017-04-08T11:02:44.994Z,16.40
2017-04-08T11:03:44.930Z,17.94
2017-04-08T11:04:45.066Z,18.34
2017-04-08T11:05:45.073Z,18.33
2017-04-08T11:06:44.965Z,19.36
2017-04-08T11:07:45.045Z,17.33
2017-04-08T11:08:45.102Z,18.24
2017-04-08T11:09:45.094Z,15.19
2017-04-08T11:10:45.514Z,15.59
2017-04-08T11:11:45.453Z,15.89
2017-04-08T11:12:45.496Z,17.67
2017-04-08T11:13:45.397Z,18.29
2017-04-08T11:14:45.684Z,15.51
2017-04-08T11:15:45.536Z,18.11
2017-04-08T11:16:45.696Z,17.74
2017-04-08T11:17:46.027Z,17.11
2017-04-08T11:18:45.875Z,15.11
2017-04-08T11:19:45.869Z,15.29
2017-04-08T11:20:45.786Z,15.84
2017-04-08T11:21:45.698Z,16.44
2017-04-08T11:22:45.631Z,16.29
2017-04-08T11:23:45.659Z,16.71
2017-04-08T11:24:45.755Z,15.43
2017-04-08T11:25:45.675Z,16.06
2017-04-08T11:26:45.591Z,15.80
2017-04-08T11:27:45.479Z,15.33
2017-04-08T11:28:45.442Z,17.16
2017-04-08T11:29:50.220Z,16.69
2017-04-08T11:30:51.048Z,19.40
2017-04-08T11:31:51.095Z,18.40
2017-04-08T11:32:51.046Z,16.56
2017-04-08T11:33:51.239Z,18.11
2017-04-08T11:34:51.201Z,17.10
2017-04-08T11:35:52.451Z,19.07
2017-04-08T11:36:53.102Z,17.93
2017-04-08T11:37:53.026Z,17.03
2017-04-08T11:38:52.904Z,16.49
2017-04-08T11:39:52.880Z,17.13
2017-04-08T11:40:52.773Z,16.63
2017-04-08T11:41:52.845Z,15.87
2017-04-08T11:42:52.835Z,15.40
2017-04-08T11:43:53.230Z,15.17
2017-04-08T11:44:53.438Z,16.56
2017-04-08T11:45:53.312Z,16.59
2017-04-08T11:46:53.332Z,15.37
2017-04-08T11:47:53.254Z,15.21
2017-04-08T11:48:53.178Z,16.87
2017-04-08T11:49:53.143Z,15.26
2017-04-08T11:50:53.051Z,15.34
2017-04-08T11:51:52.934Z,15.66
2017-04-08T11:52:52.852Z,17.19
2017-04-08T11:53:52.856Z,17.99
2017-04-08T11:54:54.050Z,19.56
2017-04-08T11:55:54.086Z,18.41
2017-04-08T11:56:54.030Z,17.23
2017-04-08T11:57:53.984Z,17.76
2017-04-08T11:58:53.916Z,17.63
2017-04-08T11:59:53.925Z,19.31
2017-04-08T12:00:53.829Z,17.67
2017-04-08T12:01:53.768Z,18.99
2017-04-08T12:02:54.501Z,18.77
2017-04-08T12:03:54.427Z,18.54
2017-04-08T12:04:54.275Z,19.16
2017-04-08T12:05:54.195Z,18.71
2017-04-08T12:06:54.107Z,18.44
2017-04-08T12:07:53.914Z,18.09
2017-04-08T12:08:53.774Z,17.93
2017-04-08T12:09:53.671Z,17.16
2017-04-08T12:10:53.667Z,19.47
2017-04-08T12:11:53.728Z,18.93
2017-04-08T12:12:53.572Z,19.57
2017-04-08T12:13:54.515Z,17.70
2017-04-08T12:14:54.355Z,17.97
2017-04-08T12:15:54.328Z,18.70
2017-04-08T12:16:54.170Z,19.16
2017-04-08T12:17:54.204Z,16.93
2017-04-08T12:18:53.995Z,17.53
2017-04-08T12:19:53.896Z,17.80
2017-04-08T12:20:53.758Z,16.59
2017-04-08T12:21:53.644Z,18.73
2017-04-08T12:22:53.677Z,19.46
2017-04-08T12:23:53.425Z,19.10
2017-04-08T12:24:53.306Z,20.01
2017-04-08T12:25:53.171Z,17.66
2017-04-08T12:26:53.080Z,16.19
2017-04-08T12:27:53.107Z,16.19
2017-04-08T12:28:53.040Z,18.13
2017-04-08T12:29:52.953Z,17.57
2017-04-08T12:30:53.575Z,17.69
2017-04-08T12:31:53.735Z,16.40
2017-04-08T12:32:53.642Z,16.94
2017-04-08T12:33:54.077Z,15.73
2017-04-08T12:34:53.965Z,15.50
2017-04-08T12:35:53.841Z,15.61
2017-04-08T12:36:53.701Z,15.70
2017-04-08T12:37:53.584Z,15.37
2017-04-08T12:38:53.466Z,17.37
2017-04-08T12:39:53.431Z,17.57
2017-04-08T12:40:53.271Z,17.03
2017-04-08T12:41:53.346Z,19.14
2017-04-08T12:42:53.246Z,17.84
2017-04-08T12:43:53.606Z,18.47
2017-04-08T12:44:53.543Z,19.43
2017-04-08T12:45:53.612Z,18.66
2017-04-08T12:46:53.537Z,20.27
2017-04-08T12:47:53.432Z,19.20
2017-04-08T12:48:53.605Z,18.79
2017-04-08T12:49:53.464Z,19.59
2017-04-08T12:50:53.401Z,19.54
2017-04-08T12:51:53.273Z,19.40
2017-04-08T12:52:53.144Z,18.74
2017-04-08T12:53:53.116Z,18.91
2017-04-08T12:54:52.991Z,19.06
2017-04-08T12:55:52.915Z,20.37
2017-04-08T12:56:52.782Z,20.37
2017-04-08T12:57:52.617Z,19.03
2017-04-08T12:58:52.484Z,19.09
2017-04-08T12:59:52.348Z,19.53
2017-04-08T13:00:52.239Z,17.99
2017-04-08T13:01:52.156Z,18.97
2017-04-08T13:02:52.105Z,18.76
2017-04-08T13:03:52.616Z,19.40
2017-04-08T13:04:52.539Z,20.29
2017-04-08T13:05:52.422Z,18.83
2017-04-08T13:06:52.259Z,18.97
2017-04-08T13:07:52.330Z,18.89
2017-04-08T13:08:52.812Z,20.30
2017-04-08T13:09:52.712Z,19.21
2017-04-08T13:10:52.498Z,19.54
2017-04-08T13:11:52.405Z,19.91